sensor_id;sensor_type;location;lat;lon;timestamp;temperature;humidity
16271;DHT22;8243;49.048;8.396;2023-08-01T00:00:31;17.90;99.90
16271;DHT22;8243;49.048;8.396;2023-08-01T00:02:57;17.90;99.90
16271;DHT22;8243;49.048;8.396;2023-08-01T00:05:22;17.80;99.90
16271;DHT22;8243;49.048;8.396;2023-08-01T00:07:48;17.80;99.90
16271;DHT22;8243;49.048;8.396;2023-08-01T00:10:13;17.80;99.90
16271;DHT22;8243;49.048;8.396;2023-08-01T00:12:41;17.80;99.90
16271;DHT22;8243;49.048;8.396;2023-08-01T00:15:07;17.70;99.90
16271;DHT22;8243;49.048;8.396;2023-08-01T00:17:33;17.70;99.90
16271;DHT22;8243;49.048;8.396;2023-08-01T00:20:00;17.70;99.90
16271;DHT22;8243;49.048;8.396;2023-08-01T00:22:26;17.60;99.90
16271;DHT22;8243;49.048;8.396;2023-08-01T00:24:51;17.70;99.90
16271;DHT22;8243;49.048;8.396;2023-08-01T00:27:17;17.60;99.90
16271;DHT22;8243;49.048;8.396;2023-08-01T00:29:43;17.60;99.90
16271;DHT22;8243;49.048;8.396;2023-08-01T00:32:08;17.60;99.90
16271;DHT22;8243;49.048;8.396;2023-08-01T00:34:34;17.60;99.90
16271;DHT22;8243;49.048;8.396;2023-08-01T00:36:59;17.60;99.90
16271;DHT22;8243;49.048;8.396;2023-08-01T00:39:25;17.60;99.90
16271;DHT22;8243;49.048;8.396;2023-08-01T00:41:51;17.60;99.90
16271;DHT22;8243;49.048;8.396;2023-08-01T00:44:16;17.70;99.90
16271;DHT22;8243;49.048;8.396;2023-08-01T00:46:42;17.60;99.90
16271;DHT22;8243;49.048;8.396;2023-08-01T00:49:08;17.70;99.90
16271;DHT22;8243;49.048;8.396;2023-08-01T00:51:34;17.60;99.90
16271;DHT22;8243;49.048;8.396;2023-08-01T00:54:00;17.70;99.90
16271;DHT22;8243;49.048;8.396;2023-08-01T00:56:26;17.70;99.90
16271;DHT22;8243;49.048;8.396;2023-08-01T00:58:51;17.80;99.90
16271;DHT22;8243;49.048;8.396;2023-08-01T01:01:17;17.80;99.90
16271;DHT22;8243;49.048;8.396;2023-08-01T01:03:43;17.70;99.90
16271;DHT22;8243;49.048;8.396;2023-08-01T01:06:16;17.80;99.90
16271;DHT22;8243;49.048;8.396;2023-08-01T01:08:44;17.80;99.90
16271;DHT22;8243;49.048;8.396;2023-08-01T01:11:10;17.80;99.90
16271;DHT22;8243;49.048;8.396;2023-08-01T01:13:35;17.80;99.90
16271;DHT22;8243;49.048;8.396;2023-08-01T01:16:01;17.80;99.90
16271;DHT22;8243;49.048;8.396;2023-08-01T01:18:26;17.80;99.90
16271;DHT22;8243;49.048;8.396;2023-08-01T01:20:52;17.80;99.90
16271;DHT22;8243;49.048;8.396;2023-08-01T01:23:18;17.90;99.90
16271;DHT22;8243;49.048;8.396;2023-08-01T01:25:45;17.90;99.90
16271;DHT22;8243;49.048;8.396;2023-08-01T01:28:13;17.80;99.90
16271;DHT22;8243;49.048;8.396;2023-08-01T01:30:41;17.80;99.90
16271;DHT22;8243;49.048;8.396;2023-08-01T01:33:07;17.80;99.90
16271;DHT22;8243;49.048;8.396;2023-08-01T01:35:35;17.80;99.90
16271;DHT22;8243;49.048;8.396;2023-08-01T01:38:02;17.80;99.90
16271;DHT22;8243;49.048;8.396;2023-08-01T01:40:30;17.80;99.90
16271;DHT22;8243;49.048;8.396;2023-08-01T01:42:56;17.80;99.90
16271;DHT22;8243;49.048;8.396;2023-08-01T01:45:21;17.80;99.90
16271;DHT22;8243;49.048;8.396;2023-08-01T01:47:47;17.70;99.90
16271;DHT22;8243;49.048;8.396;2023-08-01T01:50:13;17.70;99.90
16271;DHT22;8243;49.048;8.396;2023-08-01T01:52:38;17.70;99.90
16271;DHT22;8243;49.048;8.396;2023-08-01T01:55:04;17.70;99.90
16271;DHT22;8243;49.048;8.396;2023-08-01T01:57:30;17.70;99.90
16271;DHT22;8243;49.048;8.396;2023-08-01T01:59:55;17.70;99.90
16271;DHT22;8243;49.048;8.396;2023-08-01T02:02:21;17.70;99.90
16271;DHT22;8243;49.048;8.396;2023-08-01T02:04:47;17.70;99.90
16271;DHT22;8243;49.048;8.396;2023-08-01T02:07:13;17.70;99.90
16271;DHT22;8243;49.048;8.396;2023-08-01T02:09:40;17.70;99.90
16271;DHT22;8243;49.048;8.396;2023-08-01T02:12:05;17.60;99.90
16271;DHT22;8243;49.048;8.396;2023-08-01T02:14:33;17.60;99.90
16271;DHT22;8243;49.048;8.396;2023-08-01T02:16:59;17.70;99.90
16271;DHT22;8243;49.048;8.396;2023-08-01T02:19:24;17.60;99.90
16271;DHT22;8243;49.048;8.396;2023-08-01T02:21:50;17.60;99.90
16271;DHT22;8243;49.048;8.396;2023-08-01T02:24:15;17.70;99.90
16271;DHT22;8243;49.048;8.396;2023-08-01T02:26:41;17.70;99.90
16271;DHT22;8243;49.048;8.396;2023-08-01T02:29:06;17.70;99.90
16271;DHT22;8243;49.048;8.396;2023-08-01T02:31:32;17.70;99.90
16271;DHT22;8243;49.048;8.396;2023-08-01T02:33:57;17.70;99.90
16271;DHT22;8243;49.048;8.396;2023-08-01T02:36:23;17.70;99.90
16271;DHT22;8243;49.048;8.396;2023-08-01T02:38:49;17.70;99.90
16271;DHT22;8243;49.048;8.396;2023-08-01T02:41:14;17.70;99.90
16271;DHT22;8243;49.048;8.396;2023-08-01T02:43:40;17.70;99.90
16271;DHT22;8243;49.048;8.396;2023-08-01T02:46:06;17.70;99.90
16271;DHT22;8243;49.048;8.396;2023-08-01T02:48:32;17.80;99.90
16271;DHT22;8243;49.048;8.396;2023-08-01T02:50:58;17.90;99.90
16271;DHT22;8243;49.048;8.396;2023-08-01T02:53:23;17.90;99.90
16271;DHT22;8243;49.048;8.396;2023-08-01T02:55:49;17.90;99.90
16271;DHT22;8243;49.048;8.396;2023-08-01T02:58:14;18.00;99.90
16271;DHT22;8243;49.048;8.396;2023-08-01T03:00:40;18.00;99.90
16271;DHT22;8243;49.048;8.396;2023-08-01T03:03:06;18.00;99.90
16271;DHT22;8243;49.048;8.396;2023-08-01T03:05:32;18.10;99.90
16271;DHT22;8243;49.048;8.396;2023-08-01T03:07:57;18.20;99.90
16271;DHT22;8243;49.048;8.396;2023-08-01T03:10:23;18.20;99.90
16271;DHT22;8243;49.048;8.396;2023-08-01T03:12:48;18.10;99.90
16271;DHT22;8243;49.048;8.396;2023-08-01T03:15:14;18.10;99.90
16271;DHT22;8243;49.048;8.396;2023-08-01T03:17:40;18.00;99.90
16271;DHT22;8243;49.048;8.396;2023-08-01T03:20:06;17.90;99.90
16271;DHT22;8243;49.048;8.396;2023-08-01T03:22:39;17.90;99.90
16271;DHT22;8243;49.048;8.396;2023-08-01T03:25:06;17.90;99.90
16271;DHT22;8243;49.048;8.396;2023-08-01T03:27:35;17.80;99.90
16271;DHT22;8243;49.048;8.396;2023-08-01T03:30:00;17.80;99.90
16271;DHT22;8243;49.048;8.396;2023-08-01T03:32:26;17.80;99.90
16271;DHT22;8243;49.048;8.396;2023-08-01T03:34:52;17.80;99.90
16271;DHT22;8243;49.048;8.396;2023-08-01T03:37:17;17.80;99.90
16271;DHT22;8243;49.048;8.396;2023-08-01T03:39:43;17.80;99.90
16271;DHT22;8243;49.048;8.396;2023-08-01T03:42:09;17.90;99.90
16271;DHT22;8243;49.048;8.396;2023-08-01T03:44:35;17.90;99.90
16271;DHT22;8243;49.048;8.396;2023-08-01T03:47:00;17.80;99.90
16271;DHT22;8243;49.048;8.396;2023-08-01T03:49:26;17.80;99.90
16271;DHT22;8243;49.048;8.396;2023-08-01T03:51:51;17.80;99.90
16271;DHT22;8243;49.048;8.396;2023-08-01T03:54:17;17.80;99.90
16271;DHT22;8243;49.048;8.396;2023-08-01T03:56:42;17.80;99.90
16271;DHT22;8243;49.048;8.396;2023-08-01T03:59:12;17.80;99.90
16271;DHT22;8243;49.048;8.396;2023-08-01T04:01:37;17.80;99.90
16271;DHT22;8243;49.048;8.396;2023-08-01T04:04:03;17.70;99.90
16271;DHT22;8243;49.048;8.396;2023-08-01T04:06:28;17.80;99.90
16271;DHT22;8243;49.048;8.396;2023-08-01T04:08:54;17.70;99.90
16271;DHT22;8243;49.048;8.396;2023-08-01T04:11:22;17.70;99.90
16271;DHT22;8243;49.048;8.396;2023-08-01T04:13:47;17.70;99.90
16271;DHT22;8243;49.048;8.396;2023-08-01T04:16:13;17.70;99.90
16271;DHT22;8243;49.048;8.396;2023-08-01T04:18:38;17.70;99.90
16271;DHT22;8243;49.048;8.396;2023-08-01T04:21:04;17.70;99.90
16271;DHT22;8243;49.048;8.396;2023-08-01T04:23:30;17.70;99.90
16271;DHT22;8243;49.048;8.396;2023-08-01T04:25:55;17.70;99.90
16271;DHT22;8243;49.048;8.396;2023-08-01T04:28:21;17.70;99.90
16271;DHT22;8243;49.048;8.396;2023-08-01T04:30:50;17.70;99.90
16271;DHT22;8243;49.048;8.396;2023-08-01T04:33:15;17.80;99.90
16271;DHT22;8243;49.048;8.396;2023-08-01T04:35:41;17.80;99.90
16271;DHT22;8243;49.048;8.396;2023-08-01T04:38:07;17.80;99.90
16271;DHT22;8243;49.048;8.396;2023-08-01T04:40:34;17.70;99.90
16271;DHT22;8243;49.048;8.396;2023-08-01T04:43:01;17.70;99.90
16271;DHT22;8243;49.048;8.396;2023-08-01T04:45:27;17.70;99.90
16271;DHT22;8243;49.048;8.396;2023-08-01T04:47:52;17.70;99.90
16271;DHT22;8243;49.048;8.396;2023-08-01T04:50:18;17.70;99.90
16271;DHT22;8243;49.048;8.396;2023-08-01T04:52:43;17.70;99.90
16271;DHT22;8243;49.048;8.396;2023-08-01T04:55:09;17.80;99.90
16271;DHT22;8243;49.048;8.396;2023-08-01T04:57:34;17.70;99.90
16271;DHT22;8243;49.048;8.396;2023-08-01T05:00:00;17.80;99.90
16271;DHT22;8243;49.048;8.396;2023-08-01T05:02:26;17.80;99.90
16271;DHT22;8243;49.048;8.396;2023-08-01T05:04:52;17.80;99.90
16271;DHT22;8243;49.048;8.396;2023-08-01T05:07:17;17.80;99.90
16271;DHT22;8243;49.048;8.396;2023-08-01T05:09:43;17.80;99.90
16271;DHT22;8243;49.048;8.396;2023-08-01T05:12:08;17.80;99.90
16271;DHT22;8243;49.048;8.396;2023-08-01T05:14:34;17.80;99.90
16271;DHT22;8243;49.048;8.396;2023-08-01T05:17:00;17.80;99.90
16271;DHT22;8243;49.048;8.396;2023-08-01T05:19:25;17.80;99.90
16271;DHT22;8243;49.048;8.396;2023-08-01T05:21:51;17.80;99.90
16271;DHT22;8243;49.048;8.396;2023-08-01T05:24:16;17.70;99.90
16271;DHT22;8243;49.048;8.396;2023-08-01T05:26:42;17.80;99.90
16271;DHT22;8243;49.048;8.396;2023-08-01T05:29:08;17.80;99.90
16271;DHT22;8243;49.048;8.396;2023-08-01T05:31:33;17.80;99.90
16271;DHT22;8243;49.048;8.396;2023-08-01T05:33:59;17.80;99.90
16271;DHT22;8243;49.048;8.396;2023-08-01T05:36:24;17.80;99.90
16271;DHT22;8243;49.048;8.396;2023-08-01T05:38:50;17.80;99.90
16271;DHT22;8243;49.048;8.396;2023-08-01T05:41:15;17.80;99.90
16271;DHT22;8243;49.048;8.396;2023-08-01T05:43:41;17.70;99.90
16271;DHT22;8243;49.048;8.396;2023-08-01T05:46:06;17.70;99.90
16271;DHT22;8243;49.048;8.396;2023-08-01T05:48:32;17.70;99.90
16271;DHT22;8243;49.048;8.396;2023-08-01T05:50:57;17.70;99.90
16271;DHT22;8243;49.048;8.396;2023-08-01T05:53:23;17.60;99.90
16271;DHT22;8243;49.048;8.396;2023-08-01T05:55:49;17.50;99.90
16271;DHT22;8243;49.048;8.396;2023-08-01T05:58:15;17.50;99.90
16271;DHT22;8243;49.048;8.396;2023-08-01T06:00:41;17.40;99.90
16271;DHT22;8243;49.048;8.396;2023-08-01T06:03:07;17.40;99.90
16271;DHT22;8243;49.048;8.396;2023-08-01T06:05:33;17.30;99.90
16271;DHT22;8243;49.048;8.396;2023-08-01T06:07:58;17.40;99.90
16271;DHT22;8243;49.048;8.396;2023-08-01T06:10:24;17.30;99.90
16271;DHT22;8243;49.048;8.396;2023-08-01T06:12:50;17.30;99.90
16271;DHT22;8243;49.048;8.396;2023-08-01T06:15:15;17.30;99.90
16271;DHT22;8243;49.048;8.396;2023-08-01T06:17:41;17.30;99.90
16271;DHT22;8243;49.048;8.396;2023-08-01T06:20:07;17.20;99.90
16271;DHT22;8243;49.048;8.396;2023-08-01T06:22:33;17.20;99.90
16271;DHT22;8243;49.048;8.396;2023-08-01T06:24:59;17.20;99.90
16271;DHT22;8243;49.048;8.396;2023-08-01T06:27:25;17.20;99.90
16271;DHT22;8243;49.048;8.396;2023-08-01T06:29:50;17.10;99.90
16271;DHT22;8243;49.048;8.396;2023-08-01T06:32:16;17.10;99.90
16271;DHT22;8243;49.048;8.396;2023-08-01T06:34:41;17.10;99.90
16271;DHT22;8243;49.048;8.396;2023-08-01T06:37:07;17.10;99.90
16271;DHT22;8243;49.048;8.396;2023-08-01T06:39:33;17.10;99.90
16271;DHT22;8243;49.048;8.396;2023-08-01T06:41:58;17.20;99.90
16271;DHT22;8243;49.048;8.396;2023-08-01T06:44:24;17.20;99.90
16271;DHT22;8243;49.048;8.396;2023-08-01T06:46:49;17.20;99.90
16271;DHT22;8243;49.048;8.396;2023-08-01T06:49:15;17.20;99.90
16271;DHT22;8243;49.048;8.396;2023-08-01T06:51:40;17.20;99.90
16271;DHT22;8243;49.048;8.396;2023-08-01T06:54:08;17.20;99.90
16271;DHT22;8243;49.048;8.396;2023-08-01T06:56:33;17.20;99.90
16271;DHT22;8243;49.048;8.396;2023-08-01T06:58:59;17.30;99.90
16271;DHT22;8243;49.048;8.396;2023-08-01T07:01:24;17.30;99.90
16271;DHT22;8243;49.048;8.396;2023-08-01T07:03:50;17.30;99.90
16271;DHT22;8243;49.048;8.396;2023-08-01T09:06:24;20.90;99.90
16271;DHT22;8243;49.048;8.396;2023-08-01T09:08:51;21.70;99.90
16271;DHT22;8243;49.048;8.396;2023-08-01T09:11:19;22.50;99.90
16271;DHT22;8243;49.048;8.396;2023-08-01T09:13:45;23.30;99.90
16271;DHT22;8243;49.048;8.396;2023-08-01T09:16:12;24.20;99.90
16271;DHT22;8243;49.048;8.396;2023-08-01T09:18:50;24.40;99.90
16271;DHT22;8243;49.048;8.396;2023-08-01T09:21:20;24.50;99.90
16271;DHT22;8243;49.048;8.396;2023-08-01T09:23:47;24.50;99.90
16271;DHT22;8243;49.048;8.396;2023-08-01T09:26:15;25.00;99.90
16271;DHT22;8243;49.048;8.396;2023-08-01T09:28:41;25.50;98.70
16271;DHT22;8243;49.048;8.396;2023-08-01T09:31:07;25.50;94.10
16271;DHT22;8243;49.048;8.396;2023-08-01T09:33:40;25.00;91.10
16271;DHT22;8243;49.048;8.396;2023-08-01T09:36:07;25.10;87.80
16271;DHT22;8243;49.048;8.396;2023-08-01T09:38:37;25.30;82.60
16271;DHT22;8243;49.048;8.396;2023-08-01T09:41:04;25.90;77.20
16271;DHT22;8243;49.048;8.396;2023-08-01T09:43:37;26.50;68.90
16271;DHT22;8243;49.048;8.396;2023-08-01T09:46:03;26.50;61.10
16271;DHT22;8243;49.048;8.396;2023-08-01T09:48:31;25.80;58.30
16271;DHT22;8243;49.048;8.396;2023-08-01T09:51:09;26.00;54.70
16271;DHT22;8243;49.048;8.396;2023-08-01T09:53:49;26.30;50.20
16271;DHT22;8243;49.048;8.396;2023-08-01T09:56:26;25.90;50.70
16271;DHT22;8243;49.048;8.396;2023-08-01T09:58:54;25.80;49.10
16271;DHT22;8243;49.048;8.396;2023-08-01T10:01:22;25.80;48.30
16271;DHT22;8243;49.048;8.396;2023-08-01T10:03:50;25.60;45.10
16271;DHT22;8243;49.048;8.396;2023-08-01T10:06:21;25.80;44.40
16271;DHT22;8243;49.048;8.396;2023-08-01T10:08:47;25.90;43.60
16271;DHT22;8243;49.048;8.396;2023-08-01T10:11:22;26.10;38.50
16271;DHT22;8243;49.048;8.396;2023-08-01T10:13:48;25.90;38.30
16271;DHT22;8243;49.048;8.396;2023-08-01T10:16:15;25.80;38.30
16271;DHT22;8243;49.048;8.396;2023-08-01T10:18:42;25.80;36.20
16271;DHT22;8243;49.048;8.396;2023-08-01T10:21:13;25.60;35.40
16271;DHT22;8243;49.048;8.396;2023-08-01T10:23:39;24.70;34.80
16271;DHT22;8243;49.048;8.396;2023-08-01T10:26:07;24.20;38.60
16271;DHT22;8243;49.048;8.396;2023-08-01T10:28:38;24.50;38.80
16271;DHT22;8243;49.048;8.396;2023-08-01T10:31:11;25.10;37.60
16271;DHT22;8243;49.048;8.396;2023-08-01T10:33:38;25.30;35.20
16271;DHT22;8243;49.048;8.396;2023-08-01T10:39:20;25.30;31.50
16271;DHT22;8243;49.048;8.396;2023-08-01T10:42:14;25.00;30.60
16271;DHT22;8243;49.048;8.396;2023-08-01T10:44:46;25.00;29.70
16271;DHT22;8243;49.048;8.396;2023-08-01T10:47:11;25.10;29.70
16271;DHT22;8243;49.048;8.396;2023-08-01T10:49:39;25.40;30.00
16271;DHT22;8243;49.048;8.396;2023-08-01T10:52:24;25.30;28.20
16271;DHT22;8243;49.048;8.396;2023-08-01T10:54:58;25.40;27.80
16271;DHT22;8243;49.048;8.396;2023-08-01T10:57:26;25.60;27.70
16271;DHT22;8243;49.048;8.396;2023-08-01T10:59:51;25.80;27.20
16271;DHT22;8243;49.048;8.396;2023-08-01T11:02:28;25.60;24.40
16271;DHT22;8243;49.048;8.396;2023-08-01T11:05:01;25.40;24.60
16271;DHT22;8243;49.048;8.396;2023-08-01T11:07:27;25.30;22.80
16271;DHT22;8243;49.048;8.396;2023-08-01T11:10:12;24.40;20.30
16271;DHT22;8243;49.048;8.396;2023-08-01T11:12:39;24.20;22.90
16271;DHT22;8243;49.048;8.396;2023-08-01T11:15:06;24.50;25.50
16271;DHT22;8243;49.048;8.396;2023-08-01T11:17:34;24.80;24.60
16271;DHT22;8243;49.048;8.396;2023-08-01T11:20:07;25.40;22.30
16271;DHT22;8243;49.048;8.396;2023-08-01T11:22:33;25.40;18.90
16271;DHT22;8243;49.048;8.396;2023-08-01T11:24:59;25.00;19.20
16271;DHT22;8243;49.048;8.396;2023-08-01T11:27:26;24.90;19.20
16271;DHT22;8243;49.048;8.396;2023-08-01T11:29:52;24.80;18.20
16271;DHT22;8243;49.048;8.396;2023-08-01T11:32:19;24.80;18.40
16271;DHT22;8243;49.048;8.396;2023-08-01T11:34:48;25.00;18.70
16271;DHT22;8243;49.048;8.396;2023-08-01T11:37:19;25.20;16.30
16271;DHT22;8243;49.048;8.396;2023-08-01T11:39:48;25.60;17.40
16271;DHT22;8243;49.048;8.396;2023-08-01T11:42:17;25.50;16.10
16271;DHT22;8243;49.048;8.396;2023-08-01T11:44:44;25.10;16.30
16271;DHT22;8243;49.048;8.396;2023-08-01T11:47:14;25.10;16.80
16271;DHT22;8243;49.048;8.396;2023-08-01T11:49:44;25.00;17.40
16271;DHT22;8243;49.048;8.396;2023-08-01T11:52:28;25.10;16.30
16271;DHT22;8243;49.048;8.396;2023-08-01T11:54:54;25.40;16.30
16271;DHT22;8243;49.048;8.396;2023-08-01T11:57:23;25.40;16.00
16271;DHT22;8243;49.048;8.396;2023-08-01T11:59:50;25.70;15.80
16271;DHT22;8243;49.048;8.396;2023-08-01T12:02:27;25.70;16.10
16271;DHT22;8243;49.048;8.396;2023-08-01T12:04:55;25.80;14.00
16271;DHT22;8243;49.048;8.396;2023-08-01T12:07:21;25.60;13.70
16271;DHT22;8243;49.048;8.396;2023-08-01T12:09:57;25.30;13.30
16271;DHT22;8243;49.048;8.396;2023-08-01T12:12:23;25.10;13.10
16271;DHT22;8243;49.048;8.396;2023-08-01T12:14:48;25.30;13.70
16271;DHT22;8243;49.048;8.396;2023-08-01T12:17:14;25.30;13.10
16271;DHT22;8243;49.048;8.396;2023-08-01T12:19:39;25.20;12.30
16271;DHT22;8243;49.048;8.396;2023-08-01T12:22:05;25.10;11.20
16271;DHT22;8243;49.048;8.396;2023-08-01T12:24:31;25.40;11.20
16271;DHT22;8243;49.048;8.396;2023-08-01T12:26:57;25.40;12.10
16271;DHT22;8243;49.048;8.396;2023-08-01T12:29:22;25.40;11.00
16271;DHT22;8243;49.048;8.396;2023-08-01T12:31:48;25.30;10.00
16271;DHT22;8243;49.048;8.396;2023-08-01T12:34:15;25.60;9.50
16271;DHT22;8243;49.048;8.396;2023-08-01T12:36:41;25.80;9.60
16271;DHT22;8243;49.048;8.396;2023-08-01T12:39:06;25.70;9.30
16271;DHT22;8243;49.048;8.396;2023-08-01T12:41:36;25.80;9.00
16271;DHT22;8243;49.048;8.396;2023-08-01T12:44:02;25.90;8.70
16271;DHT22;8243;49.048;8.396;2023-08-01T12:46:31;25.90;9.30
16271;DHT22;8243;49.048;8.396;2023-08-01T12:48:57;26.00;8.00
16271;DHT22;8243;49.048;8.396;2023-08-01T12:51:22;26.00;6.00
16271;DHT22;8243;49.048;8.396;2023-08-01T12:53:48;25.90;7.20
16271;DHT22;8243;49.048;8.396;2023-08-01T12:56:13;26.00;8.10
16271;DHT22;8243;49.048;8.396;2023-08-01T12:58:39;26.10;7.60
16271;DHT22;8243;49.048;8.396;2023-08-01T13:01:06;26.00;7.10
16271;DHT22;8243;49.048;8.396;2023-08-01T13:03:31;25.80;6.30
16271;DHT22;8243;49.048;8.396;2023-08-01T13:05:57;25.80;8.00
16271;DHT22;8243;49.048;8.396;2023-08-01T13:08:23;25.90;7.50
16271;DHT22;8243;49.048;8.396;2023-08-01T13:10:49;26.10;7.30
16271;DHT22;8243;49.048;8.396;2023-08-01T13:13:16;25.80;7.00
16271;DHT22;8243;49.048;8.396;2023-08-01T13:15:41;25.80;7.80
16271;DHT22;8243;49.048;8.396;2023-08-01T13:18:07;25.90;8.30
16271;DHT22;8243;49.048;8.396;2023-08-01T13:20:33;25.90;7.20
16271;DHT22;8243;49.048;8.396;2023-08-01T13:22:58;25.70;7.80
16271;DHT22;8243;49.048;8.396;2023-08-01T13:25:27;25.80;6.50
16271;DHT22;8243;49.048;8.396;2023-08-01T13:27:52;25.90;5.60
16271;DHT22;8243;49.048;8.396;2023-08-01T13:30:18;25.80;6.80
16271;DHT22;8243;49.048;8.396;2023-08-01T13:32:44;25.80;7.90
16271;DHT22;8243;49.048;8.396;2023-08-01T13:35:10;26.10;6.30
16271;DHT22;8243;49.048;8.396;2023-08-01T13:37:36;26.00;5.80
16271;DHT22;8243;49.048;8.396;2023-08-01T13:40:02;25.90;5.60
16271;DHT22;8243;49.048;8.396;2023-08-01T13:42:28;25.80;5.90
16271;DHT22;8243;49.048;8.396;2023-08-01T13:44:54;25.90;7.20
16271;DHT22;8243;49.048;8.396;2023-08-01T13:47:19;26.10;6.60
16271;DHT22;8243;49.048;8.396;2023-08-01T13:49:45;25.70;6.00
16271;DHT22;8243;49.048;8.396;2023-08-01T13:52:11;25.80;6.80
16271;DHT22;8243;49.048;8.396;2023-08-01T13:54:36;26.00;7.10
16271;DHT22;8243;49.048;8.396;2023-08-01T13:57:02;25.80;6.40
16271;DHT22;8243;49.048;8.396;2023-08-01T13:59:27;25.50;7.30
16271;DHT22;8243;49.048;8.396;2023-08-01T14:01:53;25.70;7.90
16271;DHT22;8243;49.048;8.396;2023-08-01T14:04:20;25.80;6.80
16271;DHT22;8243;49.048;8.396;2023-08-01T14:06:45;25.90;7.10
16271;DHT22;8243;49.048;8.396;2023-08-01T14:09:11;26.10;6.10
16271;DHT22;8243;49.048;8.396;2023-08-01T14:11:37;26.10;6.50
16271;DHT22;8243;49.048;8.396;2023-08-01T14:14:03;25.70;6.70
16271;DHT22;8243;49.048;8.396;2023-08-01T14:16:29;25.70;7.30
16271;DHT22;8243;49.048;8.396;2023-08-01T14:18:55;25.70;7.40
16271;DHT22;8243;49.048;8.396;2023-08-01T14:21:20;25.60;7.60
16271;DHT22;8243;49.048;8.396;2023-08-01T14:23:46;25.70;7.00
16271;DHT22;8243;49.048;8.396;2023-08-01T14:26:14;25.80;7.20
16271;DHT22;8243;49.048;8.396;2023-08-01T14:28:39;25.60;5.70
16271;DHT22;8243;49.048;8.396;2023-08-01T14:31:05;25.40;6.20
16271;DHT22;8243;49.048;8.396;2023-08-01T14:33:30;25.40;6.70
16271;DHT22;8243;49.048;8.396;2023-08-01T14:35:56;25.20;6.40
16271;DHT22;8243;49.048;8.396;2023-08-01T14:38:23;25.10;6.30
16271;DHT22;8243;49.048;8.396;2023-08-01T14:40:48;25.00;7.00
16271;DHT22;8243;49.048;8.396;2023-08-01T14:43:14;25.20;6.10
16271;DHT22;8243;49.048;8.396;2023-08-01T14:45:40;25.40;5.80
16271;DHT22;8243;49.048;8.396;2023-08-01T14:48:09;25.20;5.50
16271;DHT22;8243;49.048;8.396;2023-08-01T14:50:35;24.80;6.30
16271;DHT22;8243;49.048;8.396;2023-08-01T14:53:01;24.70;7.10
16271;DHT22;8243;49.048;8.396;2023-08-01T14:55:32;25.00;8.20
16271;DHT22;8243;49.048;8.396;2023-08-01T14:57:57;25.40;8.50
16271;DHT22;8243;49.048;8.396;2023-08-01T15:00:23;25.30;8.20
16271;DHT22;8243;49.048;8.396;2023-08-01T15:02:49;25.00;9.00
16271;DHT22;8243;49.048;8.396;2023-08-01T15:05:14;25.00;9.80
16271;DHT22;8243;49.048;8.396;2023-08-01T15:07:40;25.10;9.50
16271;DHT22;8243;49.048;8.396;2023-08-01T15:10:06;25.10;9.40
16271;DHT22;8243;49.048;8.396;2023-08-01T15:12:31;24.90;10.10
16271;DHT22;8243;49.048;8.396;2023-08-01T15:14:57;24.70;10.40
16271;DHT22;8243;49.048;8.396;2023-08-01T15:17:23;24.40;10.50
16271;DHT22;8243;49.048;8.396;2023-08-01T15:19:49;24.20;11.00
16271;DHT22;8243;49.048;8.396;2023-08-01T15:22:16;24.10;11.40
16271;DHT22;8243;49.048;8.396;2023-08-01T15:24:42;24.00;11.00
16271;DHT22;8243;49.048;8.396;2023-08-01T15:27:07;24.20;10.30
16271;DHT22;8243;49.048;8.396;2023-08-01T15:29:33;24.60;10.30
16271;DHT22;8243;49.048;8.396;2023-08-01T15:31:58;25.00;9.80
16271;DHT22;8243;49.048;8.396;2023-08-01T15:34:24;25.00;9.30
16271;DHT22;8243;49.048;8.396;2023-08-01T15:36:50;24.70;9.30
16271;DHT22;8243;49.048;8.396;2023-08-01T15:39:15;24.80;9.70
16271;DHT22;8243;49.048;8.396;2023-08-01T15:41:41;25.00;9.20
16271;DHT22;8243;49.048;8.396;2023-08-01T15:44:07;25.20;8.20
16271;DHT22;8243;49.048;8.396;2023-08-01T15:46:33;25.40;8.20
16271;DHT22;8243;49.048;8.396;2023-08-01T15:48:59;25.30;7.50
16271;DHT22;8243;49.048;8.396;2023-08-01T15:51:25;25.10;8.10
16271;DHT22;8243;49.048;8.396;2023-08-01T15:53:50;24.90;8.00
16271;DHT22;8243;49.048;8.396;2023-08-01T15:56:16;24.80;8.20
16271;DHT22;8243;49.048;8.396;2023-08-01T15:58:41;24.80;7.90
16271;DHT22;8243;49.048;8.396;2023-08-01T16:01:07;24.70;8.70
16271;DHT22;8243;49.048;8.396;2023-08-01T16:03:37;24.70;8.90
16271;DHT22;8243;49.048;8.396;2023-08-01T16:06:04;24.70;8.60
16271;DHT22;8243;49.048;8.396;2023-08-01T16:08:30;24.60;8.90
16271;DHT22;8243;49.048;8.396;2023-08-01T16:10:55;24.30;9.30
16271;DHT22;8243;49.048;8.396;2023-08-01T16:13:21;24.10;9.40
16271;DHT22;8243;49.048;8.396;2023-08-01T16:15:47;24.20;10.00
16271;DHT22;8243;49.048;8.396;2023-08-01T16:18:13;24.30;9.90
16271;DHT22;8243;49.048;8.396;2023-08-01T16:20:39;24.30;10.30
16271;DHT22;8243;49.048;8.396;2023-08-01T16:23:04;24.50;10.10
16271;DHT22;8243;49.048;8.396;2023-08-01T16:25:30;24.60;10.30
16271;DHT22;8243;49.048;8.396;2023-08-01T16:27:56;24.50;10.40
16271;DHT22;8243;49.048;8.396;2023-08-01T16:30:21;24.20;10.60
16271;DHT22;8243;49.048;8.396;2023-08-01T16:32:47;23.90;10.50
16271;DHT22;8243;49.048;8.396;2023-08-01T16:35:14;23.80;11.10
16271;DHT22;8243;49.048;8.396;2023-08-01T16:37:40;23.80;10.80
16271;DHT22;8243;49.048;8.396;2023-08-01T16:40:09;24.00;10.80
16271;DHT22;8243;49.048;8.396;2023-08-01T16:42:35;24.30;10.90
16271;DHT22;8243;49.048;8.396;2023-08-01T16:45:01;24.40;10.80
16271;DHT22;8243;49.048;8.396;2023-08-01T16:47:27;24.40;10.20
16271;DHT22;8243;49.048;8.396;2023-08-01T16:49:56;24.20;10.30
16271;DHT22;8243;49.048;8.396;2023-08-01T16:52:22;23.90;10.60
16271;DHT22;8243;49.048;8.396;2023-08-01T16:54:47;23.70;11.50
16271;DHT22;8243;49.048;8.396;2023-08-01T16:57:13;23.70;11.70
16271;DHT22;8243;49.048;8.396;2023-08-01T16:59:39;23.90;11.90
16271;DHT22;8243;49.048;8.396;2023-08-01T17:02:06;24.00;10.90
16271;DHT22;8243;49.048;8.396;2023-08-01T17:04:32;23.90;10.50
16271;DHT22;8243;49.048;8.396;2023-08-01T17:06:57;23.90;10.80
16271;DHT22;8243;49.048;8.396;2023-08-01T17:09:29;23.90;10.30
16271;DHT22;8243;49.048;8.396;2023-08-01T17:11:54;23.80;10.50
16271;DHT22;8243;49.048;8.396;2023-08-01T17:14:20;23.70;10.60
16271;DHT22;8243;49.048;8.396;2023-08-01T17:16:46;23.60;10.90
16271;DHT22;8243;49.048;8.396;2023-08-01T17:19:15;23.40;10.70
16271;DHT22;8243;49.048;8.396;2023-08-01T17:21:41;23.40;11.80
16271;DHT22;8243;49.048;8.396;2023-08-01T17:24:10;23.40;12.30
16271;DHT22;8243;49.048;8.396;2023-08-01T17:26:39;23.40;12.10
16271;DHT22;8243;49.048;8.396;2023-08-01T17:29:05;23.30;12.50
16271;DHT22;8243;49.048;8.396;2023-08-01T17:31:32;23.30;12.60
16271;DHT22;8243;49.048;8.396;2023-08-01T17:34:00;23.30;12.60
16271;DHT22;8243;49.048;8.396;2023-08-01T17:36:25;23.10;12.60
16271;DHT22;8243;49.048;8.396;2023-08-01T17:38:51;22.90;12.90
16271;DHT22;8243;49.048;8.396;2023-08-01T17:41:29;22.70;13.50
16271;DHT22;8243;49.048;8.396;2023-08-01T17:43:56;22.50;14.00
16271;DHT22;8243;49.048;8.396;2023-08-01T17:46:22;22.30;13.80
16271;DHT22;8243;49.048;8.396;2023-08-01T17:48:49;22.20;14.20